Time;durP1;ratioP1;P1;durP2;ratioP2;P2;SDS_P1;SDS_P2;PMS_P1;PMS_P2;Temp;Humidity;BMP_temperature;BMP_pressure;BME280_temperature;BME280_humidity;BME280_pressure;Samples;Min_cycle;Max_cycle;Signal;HPM_P1;HPM_P2
2024/01/04 00:01:15;;;;;;;1999.90;999.90;;;8.20;99.90;;;;;;4986540;28;20442;-73
2024/01/04 00:03:41;;;;;;;1999.90;999.90;;;8.20;99.90;;;;;;4983648;28;20966;-73
2024/01/04 00:06:07;;;;;;;1999.90;999.90;;;8.30;99.90;;;;;;4984177;28;20437;-74
2024/01/04 00:08:32;;;;;;;1999.90;999.90;;;8.30;99.90;;;;;;4984797;28;20403;-73
2024/01/04 00:10:58;;;;;;;1999.90;999.90;;;8.30;99.90;;;;;;4983454;28;20176;-74
2024/01/04 00:13:24;;;;;;;1999.90;999.90;;;8.40;99.90;;;;;;4984460;28;20186;-73
2024/01/04 00:15:50;;;;;;;1999.90;999.90;;;8.30;99.90;;;;;;4979817;28;20170;-73
2024/01/04 00:18:15;;;;;;;1999.90;999.90;;;8.40;99.90;;;;;;4978318;28;20497;-73
2024/01/04 00:20:42;;;;;;;1999.90;999.90;;;8.40;99.90;;;;;;4977338;28;20941;-73
2024/01/04 00:23:07;;;;;;;1999.90;999.90;;;8.10;99.90;;;;;;4976980;28;20195;-73
2024/01/04 00:25:33;;;;;;;1999.90;999.90;;;8.40;99.90;;;;;;4976922;28;20824;-73
2024/01/04 00:27:59;;;;;;;1999.90;999.90;;;8.40;99.90;;;;;;4977200;28;20202;-72
2024/01/04 00:30:25;;;;;;;1999.90;999.90;;;8.40;99.90;;;;;;4977343;28;20187;-73
2024/01/04 00:32:50;;;;;;;1999.90;999.90;;;8.40;99.90;;;;;;4976416;28;20415;-73
2024/01/04 00:35:16;;;;;;;1999.90;999.90;;;8.30;99.90;;;;;;4976037;28;20521;-73
2024/01/04 00:37:42;;;;;;;1999.90;999.90;;;8.40;99.90;;;;;;4976456;28;20410;-73
2024/01/04 00:40:08;;;;;;;1999.90;999.90;;;8.40;99.90;;;;;;4976275;28;20225;-73
2024/01/04 00:42:35;;;;;;;1999.90;999.90;;;8.40;99.90;;;;;;4976197;28;20205;-73
2024/01/04 00:45:00;;;;;;;1999.90;999.90;;;8.50;99.90;;;;;;4974808;28;20428;-73
2024/01/04 00:47:26;;;;;;;1999.90;999.90;;;8.40;99.90;;;;;;4976115;28;20417;-73
2024/01/04 00:49:51;;;;;;;1999.90;999.90;;;8.40;99.90;;;;;;4976239;28;20194;-73
2024/01/04 00:52:17;;;;;;;1999.90;999.90;;;8.40;99.90;;;;;;4977043;28;20179;-72
2024/01/04 00:54:42;;;;;;;1999.90;999.90;;;8.40;99.90;;;;;;4977107;28;20273;-73
2024/01/04 00:57:08;;;;;;;1999.90;999.90;;;8.40;99.90;;;;;;4977964;28;20488;-73
2024/01/04 00:59:34;;;;;;;1999.90;999.90;;;8.40;99.90;;;;;;4978349;28;20286;-73
2024/01/04 01:02:00;;;;;;;1999.90;999.90;;;8.40;99.90;;;;;;4979183;28;20912;-74
2024/01/04 01:04:25;;;;;;;1999.90;999.90;;;8.40;99.90;;;;;;4980756;28;20261;-73
2024/01/04 01:06:51;;;;;;;1999.90;999.90;;;8.60;99.90;;;;;;4977651;28;20205;-76
2024/01/04 01:09:16;;;;;;;1999.90;999.90;;;8.40;99.90;;;;;;4974602;28;20254;-76
2024/01/04 01:11:42;;;;;;;1999.90;999.90;;;8.30;99.90;;;;;;4974341;28;20178;-76
2024/01/04 01:14:08;;;;;;;1999.90;999.90;;;8.30;99.90;;;;;;4973957;28;20194;-75
2024/01/04 01:16:34;;;;;;;1999.90;999.90;;;8.30;99.90;;;;;;4974385;28;20175;-76
2024/01/04 01:18:59;;;;;;;1999.90;999.90;;;8.20;99.90;;;;;;4975159;28;20418;-75
2024/01/04 01:21:25;;;;;;;1999.90;999.90;;;8.30;99.90;;;;;;4976408;28;20186;-75
2024/01/04 01:23:51;;;;;;;1999.90;999.90;;;8.30;99.90;;;;;;4976300;28;20257;-75
2024/01/04 01:26:17;;;;;;;1999.90;999.90;;;8.30;99.90;;;;;;4973753;28;20174;-76
2024/01/04 01:28:42;;;;;;;1999.90;999.90;;;8.20;99.90;;;;;;4974872;28;20416;-77
2024/01/04 01:31:08;;;;;;;1999.90;999.90;;;8.30;99.90;;;;;;4975908;28;20202;-76
2024/01/04 01:33:34;;;;;;;1999.90;999.90;;;8.30;99.90;;;;;;4974639;28;20269;-76
2024/01/04 01:36:02;;;;;;;1999.90;999.90;;;8.30;99.90;;;;;;4974265;28;20799;-77
2024/01/04 01:38:28;;;;;;;1999.90;999.90;;;8.20;99.90;;;;;;4974792;28;20170;-75
2024/01/04 01:40:54;;;;;;;1999.90;999.90;;;8.50;99.90;;;;;;4976807;28;20422;-73
2024/01/04 01:43:19;;;;;;;1999.90;999.90;;;8.20;99.90;;;;;;4973424;28;20216;-72
2024/01/04 01:45:46;;;;;;;1999.90;999.90;;;8.30;99.90;;;;;;4973739;28;20177;-72
2024/01/04 01:48:14;;;;;;;1999.90;999.90;;;8.20;99.90;;;;;;4973766;28;20702;-72
2024/01/04 01:50:40;;;;;;;1999.90;999.90;;;8.30;99.90;;;;;;4973724;28;20438;-72
2024/01/04 01:53:06;;;;;;;1999.90;999.90;;;8.40;99.90;;;;;;4973315;28;20446;-71
2024/01/04 01:55:32;;;;;;;1999.90;999.90;;;8.30;99.90;;;;;;4973573;28;20405;-71
2024/01/04 01:57:58;;;;;;;1999.90;999.90;;;8.40;99.90;;;;;;4973551;28;20753;-72
2024/01/04 02:00:24;;;;;;;1999.90;999.90;;;8.40;99.90;;;;;;4973576;28;20493;-71
2024/01/04 02:02:50;;;;;;;1999.90;999.90;;;;;;;;;;4973107;28;20946;-72
2024/01/04 02:05:17;;;;;;;1999.90;999.90;;;8.40;99.90;;;;;;4973286;28;20252;-71
2024/01/04 02:07:45;;;;;;;1999.90;999.90;;;8.40;99.90;;;;;;4973381;28;20410;-72
2024/01/04 02:10:11;;;;;;;1999.90;999.90;;;8.50;99.90;;;;;;4973644;28;20437;-71
2024/01/04 02:12:37;;;;;;;1999.90;999.90;;;8.50;99.90;;;;;;4973114;28;21060;-71
2024/01/04 02:15:03;;;;;;;1999.90;999.90;;;8.50;99.90;;;;;;4973230;28;20445;-72
2024/01/04 02:17:29;;;;;;;1999.90;999.90;;;8.60;99.90;;;;;;4972603;28;20910;-72
2024/01/04 02:19:56;;;;;;;1999.90;999.90;;;8.50;99.90;;;;;;4973226;28;20831;-72
2024/01/04 02:22:22;;;;;;;1999.90;999.90;;;8.60;99.90;;;;;;4972792;28;20461;-71
2024/01/04 02:24:48;;;;;;;1999.90;999.90;;;8.60;99.90;;;;;;4973016;28;20422;-71
2024/01/04 02:27:13;;;;;;;1999.90;999.90;;;8.80;99.90;;;;;;4973161;28;20580;-71
2024/01/04 02:29:39;;;;;;;1999.90;999.90;;;8.70;99.90;;;;;;4973093;28;20180;-72
2024/01/04 02:32:05;;;;;;;1999.90;999.90;;;8.70;99.90;;;;;;4972777;28;20443;-72
2024/01/04 02:34:31;;;;;;;1999.90;999.90;;;8.70;99.90;;;;;;4972892;28;20281;-72
2024/01/04 02:36:59;;;;;;;1999.90;999.90;;;8.70;99.90;;;;;;4972985;28;20576;-71
2024/01/04 02:39:25;;;;;;;1999.90;999.90;;;8.60;99.90;;;;;;4973293;28;20180;-72
2024/01/04 02:41:50;;;;;;;1999.90;999.90;;;8.80;99.90;;;;;;4973058;28;20414;-71
2024/01/04 02:44:16;;;;;;;1999.90;999.90;;;8.80;99.90;;;;;;4972613;28;20261;-71
2024/01/04 02:46:42;;;;;;;1999.90;999.90;;;8.70;99.90;;;;;;4972912;28;20258;-72
2024/01/04 02:49:08;;;;;;;1999.90;999.90;;;8.70;99.90;;;;;;4972923;28;20172;-71
2024/01/04 02:51:33;;;;;;;1999.90;999.90;;;8.60;99.90;;;;;;4972899;28;20410;-72
2024/01/04 02:53:59;;;;;;;1999.90;999.90;;;8.60;99.90;;;;;;4972573;28;20258;-72
2024/01/04 02:56:25;;;;;;;1999.90;999.90;;;8.40;99.90;;;;;;4973053;28;20180;-72
2024/01/04 02:58:50;;;;;;;1999.90;999.90;;;8.50;99.90;;;;;;4972867;28;20791;-72
2024/01/04 03:01:23;;;;;;;1999.90;999.90;;;8.40;99.90;;;;;;4972829;28;20183;-72
2024/01/04 03:03:53;;;;;;;1999.90;999.90;;;8.50;99.90;;;;;;4972290;28;20202;-72
2024/01/04 03:06:22;;;;;;;1999.90;999.90;;;8.50;99.90;;;;;;4972865;28;20407;-72
2024/01/04 03:08:48;;;;;;;1999.90;999.90;;;8.60;99.90;;;;;;4972967;28;20414;-72
2024/01/04 03:11:13;;;;;;;1999.90;999.90;;;8.50;99.90;;;;;;4972822;28;20411;-72
2024/01/04 03:13:39;;;;;;;1999.90;999.90;;;8.60;99.90;;;;;;4972590;28;20210;-72
2024/01/04 03:16:05;;;;;;;1999.90;999.90;;;8.60;99.90;;;;;;4972703;28;20557;-72
2024/01/04 03:18:30;;;;;;;1999.90;999.90;;;8.50;99.90;;;;;;4972737;28;20183;-72
2024/01/04 03:20:56;;;;;;;1999.90;999.90;;;8.70;99.90;;;;;;4972696;28;20890;-72
2024/01/04 03:23:21;;;;;;;1999.90;999.90;;;8.50;99.90;;;;;;4972354;28;20207;-73
2024/01/04 03:25:47;;;;;;;1999.90;999.90;;;8.60;99.90;;;;;;4972642;28;20620;-72
2024/01/04 03:28:13;;;;;;;1999.90;999.90;;;8.50;99.90;;;;;;4972739;28;20171;-72
2024/01/04 03:30:38;;;;;;;1999.90;999.90;;;8.40;99.90;;;;;;4976201;28;20262;-72
2024/01/04 03:33:04;;;;;;;1999.90;999.90;;;8.40;99.90;;;;;;4975891;28;20201;-74
2024/01/04 03:35:29;;;;;;;1999.90;999.90;;;8.40;99.90;;;;;;4976150;28;20182;-72
2024/01/04 03:37:55;;;;;;;1999.90;999.90;;;8.40;99.90;;;;;;4976342;28;20555;-72
2024/01/04 03:40:20;;;;;;;1999.90;999.90;;;8.40;99.90;;;;;;4975684;28;20716;-72
2024/01/04 03:42:46;;;;;;;1999.90;999.90;;;8.40;99.90;;;;;;4975788;28;20238;-73
2024/01/04 03:45:12;;;;;;;1999.90;999.90;;;8.40;99.90;;;;;;4975828;28;20742;-72
2024/01/04 03:47:37;;;;;;;1999.90;999.90;;;8.40;99.90;;;;;;4975961;28;20167;-72
2024/01/04 03:50:05;;;;;;;1999.90;999.90;;;8.50;99.90;;;;;;4975927;28;20197;-73
2024/01/04 03:52:31;;;;;;;1999.90;999.90;;;8.50;99.90;;;;;;4975819;28;20185;-73
2024/01/04 03:54:56;;;;;;;1999.90;999.90;;;8.30;99.90;;;;;;4975700;28;20430;-72
2024/01/04 03:57:22;;;;;;;1999.90;999.90;;;8.30;99.90;;;;;;4975772;28;20414;-73
2024/01/04 03:59:47;;;;;;;1999.90;999.90;;;8.40;99.90;;;;;;4975747;28;20755;-73
2024/01/04 04:02:13;;;;;;;1999.90;999.90;;;8.60;99.90;;;;;;4975365;28;20666;-73
2024/01/04 04:04:39;;;;;;;1999.90;999.90;;;8.40;99.90;;;;;;4975417;28;20266;-73
2024/01/04 04:07:04;;;;;;;1999.90;999.90;;;8.40;99.90;;;;;;5038256;23;20228;-72
2024/01/04 04:09:30;;;;;;;1999.90;999.90;;;8.40;99.90;;;;;;5034350;28;20726;-71
2024/01/04 04:11:55;;;;;;;1999.90;999.90;;;8.40;99.90;;;;;;5032874;28;20173;-71
2024/01/04 04:14:21;;;;;;;1999.90;999.90;;;8.30;99.90;;;;;;5034035;28;20228;-72
2024/01/04 04:16:47;;;;;;;1999.90;999.90;;;8.50;99.90;;;;;;5031803;28;20710;-72
2024/01/04 04:19:13;;;;;;;1999.90;999.90;;;8.60;99.90;;;;;;5028726;28;20498;-73
2024/01/04 04:21:38;;;;;;;1999.90;999.90;;;8.60;99.90;;;;;;5034401;28;20181;-73
2024/01/04 04:24:04;;;;;;;1999.90;999.90;;;8.80;99.90;;;;;;5021534;28;20194;-73
2024/01/04 04:26:31;;;;;;;1999.90;999.90;;;8.60;99.90;;;;;;5013209;28;20731;-72
2024/01/04 04:28:56;;;;;;;1999.90;999.90;;;8.60;99.90;;;;;;5018205;28;20659;-73
2024/01/04 04:31:22;;;;;;;1999.90;999.90;;;8.60;99.90;;;;;;5033859;28;20404;-72
2024/01/04 04:33:48;;;;;;;1999.90;999.90;;;8.70;99.90;;;;;;5023273;28;20670;-72
2024/01/04 04:36:14;;;;;;;1999.90;999.90;;;8.70;99.90;;;;;;5043612;28;20199;-71
2024/01/04 04:38:41;;;;;;;1999.90;999.90;;;8.60;99.90;;;;;;5023409;28;20557;-73
2024/01/04 04:41:07;;;;;;;1999.90;999.90;;;8.60;99.90;;;;;;5033685;28;20207;-72
2024/01/04 04:43:34;;;;;;;1999.90;999.90;;;8.80;99.90;;;;;;5033799;28;20459;-72
2024/01/04 04:46:01;;;;;;;1999.90;999.90;;;8.60;99.90;;;;;;5029855;28;20455;-72
2024/01/04 04:48:26;;;;;;;1999.90;999.90;;;8.60;99.90;;;;;;5021672;28;20566;-72
2024/01/04 04:50:53;;;;;;;1999.90;999.90;;;8.60;99.90;;;;;;5031069;28;20435;-73
2024/01/04 04:53:20;;;;;;;1999.90;999.90;;;8.50;99.90;;;;;;5021258;28;20176;-73
2024/01/04 04:55:45;;;;;;;1999.90;999.90;;;8.40;99.90;;;;;;5025821;28;20515;-74
2024/01/04 04:58:11;;;;;;;1999.90;999.90;;;8.40;99.90;;;;;;5034233;28;20503;-72
2024/01/04 05:00:37;;;;;;;1999.90;999.90;;;8.40;99.90;;;;;;5016887;28;20542;-72
2024/01/04 05:03:03;;;;;;;1999.90;999.90;;;8.30;99.90;;;;;;5028993;28;20621;-72
2024/01/04 05:05:28;;;;;;;1999.90;999.90;;;8.20;99.90;;;;;;5013375;28;20207;-72
2024/01/04 05:07:55;;;;;;;1999.90;999.90;;;8.20;99.90;;;;;;5014314;28;20789;-73
2024/01/04 05:10:21;;;;;;;1999.90;999.90;;;8.30;99.90;;;;;;5028480;28;20226;-73
2024/01/04 05:12:46;;;;;;;1999.90;999.90;;;8.20;99.90;;;;;;5016544;28;20792;-72
2024/01/04 05:15:12;;;;;;;1999.90;999.90;;;8.00;99.90;;;;;;5032933;28;20474;-73
2024/01/04 05:17:38;;;;;;;1999.90;999.90;;;8.10;99.90;;;;;;5016634;28;20181;-74
2024/01/04 05:20:04;;;;;;;1999.90;999.90;;;8.10;99.90;;;;;;5013704;28;20408;-72
2024/01/04 05:22:30;;;;;;;1999.90;999.90;;;8.10;99.90;;;;;;5012911;28;20283;-73
2024/01/04 05:24:56;;;;;;;1999.90;999.90;;;8.20;99.90;;;;;;5013284;28;20857;-73
2024/01/04 05:27:22;;;;;;;1999.90;999.90;;;8.10;99.90;;;;;;5013072;28;20427;-72
2024/01/04 05:29:47;;;;;;;1999.90;999.90;;;8.10;99.90;;;;;;5013327;28;20461;-72
2024/01/04 05:32:13;;;;;;;1999.90;999.90;;;7.90;99.90;;;;;;5012896;28;20162;-72
2024/01/04 05:34:38;;;;;;;1999.90;999.90;;;7.90;99.90;;;;;;5013032;28;20169;-73
2024/01/04 05:37:04;;;;;;;1999.90;999.90;;;8.20;99.90;;;;;;5011113;28;20204;-72
2024/01/04 05:39:30;;;;;;;1999.90;999.90;;;8.00;99.90;;;;;;5012939;28;20177;-73
2024/01/04 05:41:55;;;;;;;1999.90;999.90;;;7.90;99.90;;;;;;5012633;28;20177;-72
2024/01/04 05:44:21;;;;;;;1999.90;999.90;;;7.90;99.90;;;;;;5012703;28;20212;-72
2024/01/04 05:46:47;;;;;;;1999.90;999.90;;;7.90;99.90;;;;;;5012656;28;20548;-71
2024/01/04 05:49:13;;;;;;;1999.90;999.90;;;7.90;99.90;;;;;;5012661;28;20169;-72
2024/01/04 05:51:38;;;;;;;1999.90;999.90;;;7.80;99.90;;;;;;5012282;28;20417;-72
2024/01/04 05:54:04;;;;;;;1999.90;999.90;;;7.80;99.90;;;;;;5011972;28;20177;-72
2024/01/04 05:56:30;;;;;;;1999.90;999.90;;;7.90;99.90;;;;;;5011152;28;20255;-72
2024/01/04 05:58:55;;;;;;;1999.90;999.90;;;7.90;99.90;;;;;;5012608;28;20184;-71
2024/01/04 06:01:21;;;;;;;1999.90;999.90;;;7.90;99.90;;;;;;5012626;28;20255;-72
2024/01/04 06:03:47;;;;;;;1999.90;999.90;;;8.00;99.90;;;;;;5010858;28;20207;-71
2024/01/04 06:06:16;;;;;;;1999.90;999.90;;;8.00;99.90;;;;;;5012307;28;20738;-72
2024/01/04 06:08:42;;;;;;;1999.90;999.90;;;8.00;99.90;;;;;;5012510;28;20537;-72
2024/01/04 06:11:09;;;;;;;1999.90;999.90;;;8.00;99.90;;;;;;5012557;28;20408;-71
2024/01/04 06:13:36;;;;;;;1999.90;999.90;;;8.00;99.90;;;;;;5012257;28;20400;-72
2024/01/04 06:16:08;;;;;;;1999.90;999.90;;;8.00;99.90;;;;;;5012217;28;20894;-71
2024/01/04 06:18:34;;;;;;;1999.90;999.90;;;8.00;99.90;;;;;;5012314;28;20417;-72
2024/01/04 06:21:01;;;;;;;1999.90;999.90;;;8.00;99.90;;;;;;5012148;28;20413;-72
2024/01/04 06:23:28;;;;;;;1999.90;999.90;;;8.20;99.90;;;;;;5012016;28;20445;-72
2024/01/04 06:25:54;;;;;;;1999.90;999.90;;;8.00;99.90;;;;;;5011944;28;20433;-72
2024/01/04 06:28:22;;;;;;;1999.90;999.90;;;8.00;99.90;;;;;;5012300;28;20409;-71
2024/01/04 06:30:48;;;;;;;1999.90;999.90;;;8.00;99.90;;;;;;5012104;28;20409;-72
2024/01/04 06:33:14;;;;;;;1999.90;999.90;;;8.00;99.90;;;;;;5011946;28;20435;-72
2024/01/04 06:35:40;;;;;;;1999.90;999.90;;;8.00;99.90;;;;;;5011961;28;20212;-71
2024/01/04 06:38:09;;;;;;;1999.90;999.90;;;8.00;99.90;;;;;;5011945;28;20412;-72
2024/01/04 06:40:35;;;;;;;1999.90;999.90;;;8.00;99.90;;;;;;5011969;28;21039;-72
2024/01/04 06:43:03;;;;;;;1999.90;999.90;;;8.00;99.90;;;;;;5011746;28;20455;-72
2024/01/04 06:45:29;;;;;;;1999.90;999.90;;;8.00;99.90;;;;;;5011969;28;21033;-72
2024/01/04 06:47:55;;;;;;;1999.90;999.90;;;7.70;99.90;;;;;;5011910;28;20785;-71
2024/01/04 06:50:21;;;;;;;1999.90;999.90;;;7.80;99.90;;;;;;5010761;28;20416;-72
2024/01/04 06:52:47;;;;;;;1999.90;999.90;;;7.80;99.90;;;;;;5011686;28;20201;-71
2024/01/04 06:55:14;;;;;;;1999.90;999.90;;;7.90;99.90;;;;;;5011782;28;20439;-72
2024/01/04 06:57:40;;;;;;;1999.90;999.90;;;7.90;99.90;;;;;;5011939;28;20177;-71
2024/01/04 07:00:07;;;;;;;1999.90;999.90;;;8.00;99.90;;;;;;5011817;28;20448;-73
2024/01/04 07:02:35;;;;;;;1999.90;999.90;;;8.00;99.90;;;;;;5011666;28;20199;-72
2024/01/04 07:05:03;;;;;;;1999.90;999.90;;;7.90;99.90;;;;;;5014553;28;20914;-71
2024/01/04 07:07:30;;;;;;;1999.90;999.90;;;8.10;99.90;;;;;;5015561;28;20420;-71
2024/01/04 07:09:56;;;;;;;1999.90;999.90;;;8.00;99.90;;;;;;5015453;28;20926;-72
2024/01/04 07:12:22;;;;;;;1999.90;999.90;;;8.10;99.90;;;;;;5015486;28;20408;-72
2024/01/04 07:14:47;;;;;;;1999.90;999.90;;;8.10;99.90;;;;;;5015563;28;20984;-72
2024/01/04 07:17:14;;;;;;;1999.90;999.90;;;8.10;99.90;;;;;;5014170;28;20509;-72
2024/01/04 07:19:43;;;;;;;1999.90;999.90;;;8.10;99.90;;;;;;5015359;28;20319;-72
2024/01/04 07:22:12;;;;;;;1999.90;999.90;;;8.10;99.90;;;;;;5009371;28;20825;-73
2024/01/04 07:24:38;;;;;;;1999.90;999.90;;;8.20;99.90;;;;;;5013291;28;20458;-73
2024/01/04 07:27:05;;;;;;;1999.90;999.90;;;8.20;99.90;;;;;;5014516;28;20470;-71
2024/01/04 07:29:31;;;;;;;1999.90;999.90;;;8.10;99.90;;;;;;5007778;28;20429;-72
2024/01/04 07:31:57;;;;;;;1999.90;999.90;;;8.20;99.90;;;;;;5013507;28;20416;-72
2024/01/04 07:34:23;;;;;;;1999.90;999.90;;;8.30;99.90;;;;;;5014831;28;20792;-72
2024/01/04 07:36:50;;;;;;;1999.90;999.90;;;8.30;99.90;;;;;;5014091;28;20442;-71
2024/01/04 07:39:16;;;;;;;1999.90;999.90;;;8.30;99.90;;;;;;5014826;28;20776;-72
2024/01/04 07:41:43;;;;;;;1999.90;999.90;;;8.40;99.90;;;;;;5014258;28;20415;-72
2024/01/04 07:44:09;;;;;;;1999.90;999.90;;;8.40;99.90;;;;;;5014509;28;20198;-72
2024/01/04 07:46:35;;;;;;;1999.90;999.90;;;8.40;99.90;;;;;;5014935;28;20429;-72
2024/01/04 07:49:03;;;;;;;1999.90;999.90;;;8.40;99.90;;;;;;5015012;28;20472;-73
2024/01/04 07:51:29;;;;;;;1999.90;999.90;;;8.40;99.90;;;;;;5014397;28;20409;-72
2024/01/04 07:53:55;;;;;;;1999.90;999.90;;;8.50;99.90;;;;;;5014414;28;20828;-72
2024/01/04 07:56:21;;;;;;;1999.90;999.90;;;8.50;99.90;;;;;;5014590;28;20484;-71
2024/01/04 07:58:46;;;;;;;1999.90;999.90;;;8.50;99.90;;;;;;5015255;28;20170;-72
2024/01/04 08:01:13;;;;;;;1999.90;999.90;;;8.60;99.90;;;;;;5015166;28;20642;-74
2024/01/04 08:03:39;;;;;;;1999.90;999.90;;;8.60;99.90;;;;;;5014669;28;20701;-73
2024/01/04 08:06:05;;;;;;;1999.90;999.90;;;8.70;99.90;;;;;;5014519;28;20531;-73
2024/01/04 08:08:31;;;;;;;1999.90;999.90;;;8.70;99.90;;;;;;5014815;28;20480;-73
2024/01/04 08:10:57;;;;;;;1999.90;999.90;;;8.80;99.90;;;;;;5014735;28;20398;-73
2024/01/04 08:13:22;;;;;;;1999.90;999.90;;;8.60;99.90;;;;;;5014562;28;20463;-72
2024/01/04 08:15:50;;;;;;;1999.90;999.90;;;8.50;99.90;;;;;;5013767;28;20193;-72
2024/01/04 08:18:15;;;;;;;1999.90;999.90;;;8.80;99.90;;;;;;5014527;28;20630;-72
2024/01/04 08:20:41;;;;;;;1999.90;999.90;;;8.80;99.90;;;;;;5014746;28;20415;-71
2024/01/04 08:23:07;;;;;;;1999.90;999.90;;;8.80;99.90;;;;;;5014434;28;20659;-73
2024/01/04 08:25:32;;;;;;;1999.90;999.90;;;8.70;99.90;;;;;;5014512;28;20187;-73
2024/01/04 08:27:58;;;;;;;1999.90;999.90;;;8.80;99.90;;;;;;5014926;28;20174;-73
2024/01/04 08:30:23;;;;;;;1999.90;999.90;;;8.70;99.90;;;;;;5009069;28;20538;-71
2024/01/04 08:32:49;;;;;;;1999.90;999.90;;;8.70;99.90;;;;;;5012738;28;20181;-73
2024/01/04 08:35:17;;;;;;;1999.90;999.90;;;8.70;99.90;;;;;;5013939;28;20212;-72
2024/01/04 08:37:45;;;;;;;1999.90;999.90;;;8.70;99.90;;;;;;5014255;28;20257;-72
2024/01/04 08:40:11;;;;;;;1999.90;999.90;;;8.70;99.90;;;;;;5012954;28;20470;-72
2024/01/04 08:42:37;;;;;;;1999.90;999.90;;;8.80;99.90;;;;;;5013756;28;20456;-72
2024/01/04 08:45:04;;;;;;;1999.90;999.90;;;8.80;99.90;;;;;;5014346;28;20400;-73
2024/01/04 08:47:30;;;;;;;1999.90;999.90;;;8.80;99.90;;;;;;5014897;28;20166;-72
2024/01/04 08:50:00;;;;;;;1999.90;999.90;;;8.90;99.90;;;;;;5014191;28;20967;-72
2024/01/04 08:52:26;;;;;;;1999.90;999.90;;;8.80;99.90;;;;;;5014549;28;20166;-72
2024/01/04 08:54:52;;;;;;;1999.90;999.90;;;8.90;99.90;;;;;;5015317;28;20403;-72
2024/01/04 08:57:17;;;;;;;1999.90;999.90;;;8.90;99.90;;;;;;5012960;28;20444;-72
2024/01/04 08:59:43;;;;;;;1999.90;999.90;;;8.90;99.90;;;;;;5014254;28;20181;-73
2024/01/04 09:02:09;;;;;;;1999.90;999.90;;;9.00;99.90;;;;;;5012901;28;20205;-72
2024/01/04 09:04:35;;;;;;;1999.90;999.90;;;9.00;99.90;;;;;;5014825;28;20175;-74
2024/01/04 09:07:00;;;;;;;1999.90;999.90;;;9.00;99.90;;;;;;5015456;28;20452;-73
2024/01/04 09:09:26;;;;;;;1999.90;999.90;;;9.00;99.90;;;;;;5014874;28;20186;-73
2024/01/04 09:11:52;;;;;;;1999.90;999.90;;;9.00;99.90;;;;;;5014187;28;20396;-72
2024/01/04 09:14:17;;;;;;;1999.90;999.90;;;9.10;99.90;;;;;;5013442;28;20194;-72
2024/01/04 09:16:44;;;;;;;1999.90;999.90;;;9.00;99.90;;;;;;5014583;28;20697;-72
2024/01/04 09:19:20;;;;;;;1999.90;999.90;;;9.20;99.90;;;;;;5014380;28;20174;-72
2024/01/04 09:21:49;;;;;;;1999.90;999.90;;;9.20;99.90;;;;;;5013967;28;20484;-72
2024/01/04 09:24:17;;;;;;;1999.90;999.90;;;9.20;99.90;;;;;;5013765;28;20461;-73
2024/01/04 09:26:44;;;;;;;1999.90;999.90;;;9.30;99.90;;;;;;5013978;28;20937;-72
2024/01/04 09:29:11;;;;;;;1999.90;999.90;;;9.60;99.90;;;;;;5014971;28;20986;-72
2024/01/04 09:31:37;;;;;;;1999.90;999.90;;;9.40;99.90;;;;;;5014858;28;20793;-72
2024/01/04 09:34:04;;;;;;;1999.90;999.90;;;9.50;99.90;;;;;;5014070;28;20497;-74
2024/01/04 09:36:30;;;;;;;1999.90;999.90;;;9.50;99.90;;;;;;5014829;28;20279;-73
2024/01/04 09:38:56;;;;;;;1999.90;999.90;;;9.50;99.90;;;;;;5014097;28;20749;-72
2024/01/04 09:41:30;;;;;;;1999.90;999.90;;;9.50;99.90;;;;;;5014408;28;20504;-72
2024/01/04 09:44:00;;;;;;;1999.90;999.90;;;9.40;99.90;;;;;;5013563;28;20485;-74
2024/01/04 09:46:45;;;;;;;1999.90;999.90;;;9.40;99.90;;;;;;5012911;28;20461;-74
2024/01/04 09:49:11;;;;;;;1999.90;999.90;;;9.40;99.90;;;;;;5013849;28;20405;-74
2024/01/04 09:51:40;;;;;;;1999.90;999.90;;;9.40;99.90;;;;;;5013517;28;20417;-74
2024/01/04 09:54:09;;;;;;;1999.90;999.90;;;9.30;99.90;;;;;;5015257;28;20442;-74
2024/01/04 09:56:39;;;;;;;1999.90;999.90;;;9.30;99.90;;;;;;5014173;28;20846;-72
2024/01/04 09:59:11;;;;;;;1999.90;999.90;;;9.60;99.90;;;;;;5013983;28;20493;-73
2024/01/04 10:01:38;;;;;;;1999.90;999.90;;;9.70;99.90;;;;;;5014331;28;20874;-74
2024/01/04 10:04:08;;;;;;;1999.90;999.90;;;9.40;99.90;;;;;;5014642;28;20947;-72
2024/01/04 10:06:37;;;;;;;1999.90;999.90;;;9.40;99.90;;;;;;5063916;22;20490;-75
2024/01/04 10:09:27;;;;;;;1999.90;999.90;;;9.40;99.90;;;;;;5032129;28;20483;-75
2024/01/04 10:12:05;;;;;;;1999.90;999.90;;;9.40;99.90;;;;;;5032180;28;20411;-75
2024/01/04 10:14:31;;;;;;;1999.90;999.90;;;9.40;99.90;;;;;;5032194;28;20400;-75
2024/01/04 10:16:56;;;;;;;1999.90;999.90;;;9.40;99.90;;;;;;5032014;28;20435;-75
2024/01/04 10:19:23;;;;;;;1999.90;999.90;;;9.50;99.90;;;;;;5032102;28;20786;-75
2024/01/04 10:21:49;;;;;;;1999.90;999.90;;;9.40;99.90;;;;;;5032369;28;20561;-75
2024/01/04 10:24:25;;;;;;;1999.90;999.90;;;9.50;99.90;;;;;;5031748;28;20459;-75
2024/01/04 10:26:56;;;;;;;1999.90;999.90;;;9.50;99.90;;;;;;5031998;28;20653;-75
2024/01/04 10:29:23;;;;;;;1999.90;999.90;;;9.60;99.90;;;;;;5032104;28;20427;-75
2024/01/04 10:31:57;;;;;;;1999.90;999.90;;;9.50;99.90;;;;;;5031913;28;20907;-76
2024/01/04 10:34:23;;;;;;;1999.90;999.90;;;9.50;99.90;;;;;;5032003;28;20425;-76
2024/01/04 10:36:49;;;;;;;1999.90;999.90;;;9.50;99.90;;;;;;5031948;28;20524;-76
2024/01/04 10:39:20;;;;;;;1999.90;999.90;;;9.70;99.90;;;;;;5031402;28;20846;-76
2024/01/04 10:41:59;;;;;;;1999.90;999.90;;;9.60;99.90;;;;;;5031997;28;20434;-75
2024/01/04 10:44:26;;;;;;;1999.90;999.90;;;9.60;99.90;;;;;;5031761;28;20813;-75
2024/01/04 10:47:01;;;;;;;1999.90;999.90;;;9.50;99.90;;;;;;5031790;28;20425;-75
2024/01/04 10:49:27;;;;;;;1999.90;999.90;;;9.50;99.90;;;;;;5031868;28;20399;-75
2024/01/04 10:52:02;;;;;;;1999.90;999.90;;;9.50;99.90;;;;;;5031948;28;20410;-75
2024/01/04 10:54:32;;;;;;;1999.90;999.90;;;9.40;99.90;;;;;;5031827;28;20412;-75
2024/01/04 10:57:02;;;;;;;1999.90;999.90;;;9.50;99.90;;;;;;5031656;28;20442;-75
2024/01/04 10:59:29;;;;;;;1999.90;999.90;;;9.30;99.90;;;;;;5031892;28;20967;-75
2024/01/04 11:01:57;;;;;;;1999.90;999.90;;;9.20;99.90;;;;;;5031439;28;20439;-73
2024/01/04 11:04:24;;;;;;;1999.90;999.90;;;9.20;99.90;;;;;;5031841;28;20799;-76
2024/01/04 11:06:52;;;;;;;1999.90;999.90;;;9.20;99.90;;;;;;5031413;28;20436;-73
2024/01/04 11:09:22;;;;;;;1999.90;999.90;;;9.20;99.90;;;;;;5031552;28;20459;-73
2024/01/04 11:11:53;;;;;;;1999.90;999.90;;;9.10;99.90;;;;;;5031498;28;20400;-72
2024/01/04 11:14:23;;;;;;;1999.90;999.90;;;8.90;99.90;;;;;;5031211;28;20480;-73
2024/01/04 11:17:11;;;;;;;1999.90;999.90;;;8.90;99.90;;;;;;5031422;28;20424;-74
2024/01/04 11:19:49;;;;;;;1999.90;999.90;;;8.80;99.90;;;;;;5031441;28;20407;-74
2024/01/04 11:22:52;;;;;;;1999.90;999.90;;;8.80;99.90;;;;;;5031109;28;20407;-73
2024/01/04 11:25:38;;;;;;;1999.90;999.90;;;8.80;99.90;;;;;;5031707;28;20811;-74
2024/01/04 11:28:08;;;;;;;1999.90;999.90;;;8.80;99.90;;;;;;5031453;28;20397;-74
2024/01/04 11:30:33;;;;;;;1999.90;999.90;;;8.80;99.90;;;;;;5031550;28;20411;-74
2024/01/04 11:32:59;;;;;;;1999.90;999.90;;;8.80;99.90;;;;;;5031237;28;20407;-74
2024/01/04 11:35:25;;;;;;;1999.90;999.90;;;9.00;99.90;;;;;;5031158;28;20549;-74
2024/01/04 11:37:55;;;;;;;1999.90;999.90;;;9.20;99.90;;;;;;5031252;28;20177;-74
2024/01/04 11:40:27;;;;;;;1999.90;999.90;;;9.00;99.90;;;;;;5031261;28;20494;-74
2024/01/04 11:42:53;;;;;;;1999.90;999.90;;;8.80;99.90;;;;;;5030793;28;20455;-74
2024/01/04 11:45:19;;;;;;;1999.90;999.90;;;8.90;99.90;;;;;;5031173;28;20915;-74
2024/01/04 11:47:46;;;;;;;1999.90;999.90;;;8.90;99.90;;;;;;5031030;28;20190;-74
2024/01/04 11:50:26;;;;;;;1999.90;999.90;;;8.90;99.90;;;;;;5031236;28;20454;-74
2024/01/04 11:53:06;;;;;;;1999.90;999.90;;;8.90;99.90;;;;;;5034486;28;20403;-74
2024/01/04 11:55:33;;;;;;;1999.90;999.90;;;8.80;99.90;;;;;;5034584;28;20400;-75
2024/01/04 11:58:11;;;;;;;1999.90;999.90;;;8.80;99.90;;;;;;5034794;28;20412;-74
2024/01/04 12:00:50;;;;;;;1999.90;999.90;;;8.90;99.90;;;;;;5034662;28;20405;-74
2024/01/04 12:03:17;;;;;;;1999.90;999.90;;;8.90;99.90;;;;;;5034186;28;20460;-74
2024/01/04 12:05:50;;;;;;;1999.90;999.90;;;9.20;99.90;;;;;;5034152;28;20429;-74
2024/01/04 12:08:24;;;;;;;1999.90;999.90;;;9.40;99.90;;;;;;5034526;28;20407;-75